createdAt,value
2022-08-26T00:01:59.575Z,0.87
2022-08-26T00:04:27.748Z,0.73
2022-08-26T00:06:56.244Z,0.80
2022-08-26T00:09:24.943Z,0.87
2022-08-26T00:11:54.034Z,0.80
2022-08-26T00:14:22.893Z,0.70
2022-08-26T00:16:52.459Z,0.70
2022-08-26T00:19:22.541Z,1.00
2022-08-26T00:21:50.306Z,0.90
2022-08-26T00:24:19.985Z,0.70
2022-08-26T00:26:48.143Z,0.80
2022-08-26T00:29:15.895Z,0.80
2022-08-26T00:31:45.019Z,0.90
2022-08-26T00:34:12.782Z,0.60
2022-08-26T00:36:41.276Z,0.97
2022-08-26T00:39:09.131Z,1.03
2022-08-26T00:41:39.295Z,0.90
2022-08-26T00:44:06.786Z,0.97
2022-08-26T00:46:46.881Z,0.80
2022-08-26T00:49:20.023Z,0.80
2022-08-26T00:51:54.187Z,0.80
2022-08-26T00:54:27.000Z,0.67
2022-08-26T00:57:08.665Z,0.80
2022-08-26T00:59:54.551Z,0.87
2022-08-26T01:02:22.207Z,0.70
2022-08-26T01:04:59.383Z,0.67
2022-08-26T01:07:30.107Z,0.80
2022-08-26T01:10:00.942Z,0.70
2022-08-26T01:12:32.563Z,0.83
2022-08-26T01:15:03.551Z,0.80
2022-08-26T01:17:33.746Z,0.73
2022-08-26T01:20:22.759Z,0.70
2022-08-26T01:22:59.444Z,0.80
2022-08-26T01:25:31.943Z,0.90
2022-08-26T01:28:05.906Z,0.90
2022-08-26T01:30:34.957Z,0.87
2022-08-26T01:33:05.104Z,0.87
2022-08-26T01:35:32.954Z,1.00
2022-08-26T01:38:02.356Z,1.00
2022-08-26T01:40:34.160Z,0.90
2022-08-26T01:43:02.504Z,1.07
2022-08-26T01:45:32.309Z,0.90
2022-08-26T01:48:02.547Z,0.93
2022-08-26T01:50:33.973Z,0.80
2022-08-26T01:53:06.196Z,0.90
2022-08-26T01:55:34.505Z,0.80
2022-08-26T01:58:06.436Z,0.80
2022-08-26T02:00:35.363Z,0.70
2022-08-26T02:03:21.779Z,0.80
2022-08-26T02:06:04.038Z,0.80
2022-08-26T02:08:38.346Z,0.60
2022-08-26T02:11:06.874Z,0.77
2022-08-26T02:13:38.646Z,0.83
2022-08-26T02:16:08.501Z,0.90
2022-08-26T02:18:38.933Z,0.70
2022-08-26T02:21:08.696Z,0.80
2022-08-26T02:23:36.213Z,0.83
2022-08-26T02:26:11.036Z,0.77
2022-08-26T02:28:49.654Z,0.73
2022-08-26T02:31:17.310Z,0.90
2022-08-26T02:33:44.645Z,0.77
2022-08-26T02:36:13.475Z,0.80
2022-08-26T02:38:43.172Z,0.60
2022-08-26T02:41:11.373Z,0.80
2022-08-26T02:43:38.564Z,1.10
2022-08-26T02:46:06.176Z,0.80
2022-08-26T02:48:33.655Z,0.90
2022-08-26T02:51:01.972Z,0.97
2022-08-26T02:53:31.975Z,0.90
2022-08-26T02:56:03.227Z,0.70
2022-08-26T02:58:30.393Z,1.20
2022-08-26T03:00:57.760Z,0.83
2022-08-26T03:03:25.615Z,1.17
2022-08-26T03:05:53.567Z,0.70
2022-08-26T03:08:22.357Z,0.70
2022-08-26T03:10:50.124Z,0.80
2022-08-26T03:13:18.728Z,0.80
2022-08-26T03:15:46.031Z,0.77
2022-08-26T03:18:15.384Z,0.80
2022-08-26T03:20:42.634Z,0.80
2022-08-26T03:23:11.292Z,0.70
2022-08-26T03:25:38.827Z,0.73
2022-08-26T03:28:06.256Z,0.80
2022-08-26T03:30:45.455Z,0.80
2022-08-26T03:33:14.637Z,1.10
2022-08-26T03:35:43.990Z,1.00
2022-08-26T03:38:11.486Z,1.00
2022-08-26T03:40:39.823Z,0.90
2022-08-26T03:43:08.253Z,0.80
2022-08-26T03:45:37.702Z,1.07
2022-08-26T03:48:06.031Z,0.97
2022-08-26T03:50:34.227Z,1.00
2022-08-26T03:53:04.230Z,0.90
2022-08-26T03:55:34.567Z,0.73
2022-08-26T03:58:02.576Z,1.00
2022-08-26T04:00:30.083Z,0.97
2022-08-26T04:02:57.596Z,1.17
2022-08-26T04:05:25.404Z,1.17
2022-08-26T04:07:53.275Z,1.00
2022-08-26T04:10:28.795Z,1.27
2022-08-26T04:12:58.934Z,1.23
2022-08-26T04:15:33.519Z,1.30
2022-08-26T04:18:01.068Z,1.27
2022-08-26T04:20:28.655Z,1.13
2022-08-26T04:22:55.823Z,0.90
2022-08-26T04:25:24.197Z,1.20
2022-08-26T04:27:51.624Z,1.03
2022-08-26T04:30:20.206Z,1.00
2022-08-26T04:32:50.671Z,1.30
2022-08-26T04:35:17.973Z,0.97
2022-08-26T04:37:45.340Z,1.20
2022-08-26T04:40:13.073Z,1.20
2022-08-26T04:42:40.411Z,0.93
2022-08-26T04:45:10.292Z,1.00
2022-08-26T04:47:38.832Z,1.10
2022-08-26T04:50:08.842Z,1.10
2022-08-26T04:52:38.366Z,0.98
2022-08-26T04:55:08.462Z,1.20
2022-08-26T04:57:36.353Z,1.05
2022-08-26T05:00:08.989Z,1.08
2022-08-26T05:02:39.580Z,1.05
2022-08-26T05:05:08.213Z,0.93
2022-08-26T05:07:35.811Z,1.08
2022-08-26T05:10:04.603Z,0.93
2022-08-26T05:12:36.035Z,1.08
2022-08-26T05:15:05.899Z,0.70
2022-08-26T05:17:33.513Z,0.90
2022-08-26T05:20:00.670Z,0.75
2022-08-26T05:22:27.917Z,1.02
2022-08-26T05:24:55.483Z,0.80
2022-08-26T05:27:22.814Z,1.13
2022-08-26T05:29:54.523Z,1.10
2022-08-26T05:32:22.062Z,1.30
2022-08-26T05:34:53.321Z,1.10
2022-08-26T05:37:22.391Z,1.00
2022-08-26T05:39:51.246Z,1.25
2022-08-26T05:42:19.999Z,1.10
2022-08-26T05:44:55.685Z,1.15
2022-08-26T05:47:24.274Z,1.10
2022-08-26T05:49:51.927Z,1.20
2022-08-26T05:52:19.898Z,1.10
2022-08-26T05:54:47.656Z,1.60
2022-08-26T05:57:15.712Z,1.10
2022-08-26T05:59:42.880Z,1.00
2022-08-26T06:02:10.397Z,1.10
2022-08-26T06:04:37.596Z,1.00
2022-08-26T06:07:05.487Z,0.88
2022-08-26T06:09:37.414Z,1.00
2022-08-26T06:12:06.210Z,1.15
2022-08-26T06:14:33.403Z,1.10
2022-08-26T06:17:00.944Z,1.00
2022-08-26T06:19:32.962Z,1.02
2022-08-26T06:22:23.534Z,1.10
2022-08-26T06:25:09.914Z,1.17
2022-08-26T06:27:37.394Z,1.00
2022-08-26T06:30:05.331Z,1.10
2022-08-26T06:32:33.614Z,1.25
2022-08-26T06:35:01.009Z,1.00
2022-08-26T06:37:28.810Z,0.80
2022-08-26T06:39:56.626Z,1.13
2022-08-26T06:42:24.950Z,0.90
2022-08-26T06:44:52.400Z,0.80
2022-08-26T06:47:19.640Z,0.90
2022-08-26T06:49:47.054Z,0.85
2022-08-26T06:52:15.125Z,1.13
2022-08-26T06:54:47.222Z,0.90
2022-08-26T06:57:14.528Z,1.10
2022-08-26T06:59:44.019Z,0.98
2022-08-26T07:02:13.535Z,1.00
2022-08-26T07:04:41.497Z,1.30
2022-08-26T07:07:09.697Z,1.08
2022-08-26T07:09:37.550Z,1.10
2022-08-26T07:12:06.850Z,1.02
2022-08-26T07:14:34.992Z,0.90
2022-08-26T07:17:02.984Z,1.10
2022-08-26T07:19:31.749Z,1.10
2022-08-26T07:22:04.336Z,1.20
2022-08-26T07:24:37.349Z,1.20
2022-08-26T07:27:07.477Z,1.10
2022-08-26T07:29:39.885Z,1.20
2022-08-26T07:32:08.678Z,1.20
2022-08-26T07:34:40.731Z,1.25
2022-08-26T07:37:09.998Z,1.20
2022-08-26T07:39:38.430Z,1.25
2022-08-26T07:42:13.401Z,1.40
2022-08-26T07:44:42.234Z,1.13
2022-08-26T07:47:25.468Z,1.00
2022-08-26T07:49:57.812Z,1.23
2022-08-26T07:52:29.996Z,1.08
2022-08-26T07:54:59.475Z,1.10
2022-08-26T07:57:28.248Z,1.10
2022-08-26T07:59:56.000Z,1.10
2022-08-26T08:02:25.042Z,1.10
2022-08-26T08:04:53.139Z,1.25
2022-08-26T08:07:21.508Z,1.02
2022-08-26T08:10:11.339Z,1.17
2022-08-26T08:12:39.482Z,1.10
2022-08-26T08:15:08.032Z,1.10
2022-08-26T08:17:35.235Z,1.10
2022-08-26T08:20:05.174Z,1.10
2022-08-26T08:22:32.637Z,1.10
2022-08-26T08:25:00.235Z,0.80
2022-08-26T08:27:30.171Z,1.10
2022-08-26T08:29:57.477Z,1.02
2022-08-26T08:32:24.687Z,1.25
2022-08-26T08:34:53.029Z,1.00
2022-08-26T08:37:20.621Z,1.00
2022-08-26T08:39:48.934Z,0.90
2022-08-26T08:42:24.983Z,1.08
2022-08-26T08:44:54.217Z,1.00
2022-08-26T08:47:54.618Z,0.95
2022-08-26T08:50:38.007Z,0.90
2022-08-26T08:53:31.633Z,0.90
2022-08-26T08:56:05.394Z,0.90
2022-08-26T08:58:51.686Z,0.68
2022-08-26T09:01:27.995Z,0.90
2022-08-26T09:04:30.791Z,0.80
2022-08-26T09:07:01.636Z,0.70
2022-08-26T09:10:29.233Z,1.00
2022-08-26T09:12:56.930Z,0.90
2022-08-26T09:15:32.077Z,0.80
2022-08-26T09:18:23.482Z,0.93
2022-08-26T09:21:00.558Z,0.80
2022-08-26T09:23:28.163Z,0.90
2022-08-26T09:26:01.701Z,0.70
2022-08-26T09:28:31.292Z,0.90
2022-08-26T09:31:15.707Z,0.80
2022-08-26T09:33:43.493Z,0.90
2022-08-26T09:36:41.482Z,0.93
2022-08-26T09:39:37.573Z,0.98
2022-08-26T09:42:20.761Z,0.90
2022-08-26T09:45:07.030Z,0.80
2022-08-26T09:47:38.673Z,1.00
2022-08-26T09:50:20.285Z,0.90
2022-08-26T09:52:47.610Z,0.90
2022-08-26T09:55:21.654Z,0.98
2022-08-26T09:57:54.845Z,0.80
2022-08-26T10:00:33.598Z,0.80
2022-08-26T10:03:17.200Z,0.80
2022-08-26T10:05:54.450Z,1.10
2022-08-26T10:08:36.390Z,0.93
2022-08-26T10:11:24.411Z,0.82
2022-08-26T10:13:58.041Z,0.93
2022-08-26T10:16:33.419Z,0.82
2022-08-26T10:19:09.908Z,0.93
2022-08-26T10:22:04.431Z,1.40
2022-08-26T10:24:54.492Z,0.90
2022-08-26T10:27:52.699Z,0.88
2022-08-26T10:30:24.591Z,0.80
2022-08-26T10:33:18.656Z,1.08
2022-08-26T10:35:58.835Z,1.00
2022-08-26T10:38:40.416Z,1.02
2022-08-26T10:41:16.791Z,0.80
2022-08-26T10:43:56.625Z,1.05
2022-08-26T10:46:29.338Z,0.90
2022-08-26T10:49:06.663Z,1.10
2022-08-26T10:51:42.253Z,0.98
2022-08-26T10:54:32.743Z,1.00
2022-08-26T10:57:04.195Z,1.10
2022-08-26T10:59:48.845Z,0.98
2022-08-26T11:02:46.921Z,0.88
2022-08-26T11:05:18.328Z,1.00
2022-08-26T11:07:51.521Z,0.95
2022-08-26T11:10:18.989Z,1.10
2022-08-26T11:12:49.726Z,0.90
2022-08-26T11:15:20.014Z,1.13
2022-08-26T11:17:52.120Z,0.80
2022-08-26T11:20:42.165Z,0.80
2022-08-26T11:23:24.334Z,1.00
2022-08-26T11:26:10.999Z,1.02
2022-08-26T11:28:48.413Z,0.90
2022-08-26T11:31:25.258Z,0.90
2022-08-26T11:34:02.711Z,0.80
2022-08-26T11:36:41.093Z,1.10
2022-08-26T11:39:47.311Z,1.00
2022-08-26T11:42:44.204Z,0.90
2022-08-26T11:45:23.645Z,1.02
2022-08-26T11:47:51.218Z,0.82
2022-08-26T11:50:26.422Z,1.00
2022-08-26T11:53:02.366Z,0.80
2022-08-26T11:55:35.130Z,1.00
2022-08-26T11:58:06.814Z,0.90
2022-08-26T12:00:51.684Z,0.90
2022-08-26T12:03:25.456Z,1.02
2022-08-26T12:05:54.491Z,0.93
2022-08-26T12:08:28.907Z,1.15
2022-08-26T12:11:09.285Z,0.93
2022-08-26T12:13:39.339Z,1.20
2022-08-26T12:16:07.650Z,1.08
2022-08-26T12:18:38.222Z,1.00
2022-08-26T12:21:22.530Z,0.93
2022-08-26T12:23:56.689Z,1.00
2022-08-26T12:26:29.293Z,1.10
2022-08-26T12:29:09.968Z,1.05
2022-08-26T12:31:48.092Z,1.00
2022-08-26T12:34:17.983Z,1.00
2022-08-26T12:39:35.951Z,1.05
2022-08-26T12:42:15.968Z,0.90
2022-08-26T12:44:58.933Z,1.15
2022-08-26T12:47:42.771Z,1.10
2022-08-26T12:50:23.915Z,0.98
2022-08-26T12:53:05.233Z,1.20
2022-08-26T12:55:42.878Z,1.17
2022-08-26T12:58:24.205Z,1.05
2022-08-26T13:01:11.889Z,0.95
2022-08-26T13:03:45.099Z,1.10
2022-08-26T13:06:22.948Z,1.10
2022-08-26T13:09:00.498Z,1.02
2022-08-26T13:11:31.708Z,1.10
2022-08-26T13:14:12.614Z,1.10
2022-08-26T13:16:49.551Z,1.15
2022-08-26T13:19:19.535Z,1.00
2022-08-26T13:21:58.428Z,1.20
2022-08-26T13:24:36.098Z,0.80
2022-08-26T13:27:05.163Z,1.00
2022-08-26T13:29:33.679Z,1.20
2022-08-26T13:32:01.780Z,1.15
2022-08-26T13:34:30.075Z,1.10
2022-08-26T13:36:58.174Z,1.10
2022-08-26T13:39:26.949Z,1.00
2022-08-26T13:41:54.587Z,1.10
2022-08-26T13:44:22.099Z,1.08
2022-08-26T13:46:49.467Z,1.10
2022-08-26T13:49:16.911Z,1.00
2022-08-26T13:51:44.444Z,1.10
2022-08-26T13:54:12.134Z,0.90
2022-08-26T13:56:39.534Z,0.93
2022-08-26T13:59:07.141Z,1.10
2022-08-26T14:01:35.793Z,1.00
2022-08-26T14:04:06.303Z,1.00
2022-08-26T14:06:33.635Z,1.00
2022-08-26T14:09:01.053Z,1.10
2022-08-26T14:11:34.809Z,1.00
2022-08-26T14:14:17.459Z,1.17
2022-08-26T14:16:58.928Z,1.20
2022-08-26T14:19:26.791Z,1.17
2022-08-26T14:21:54.078Z,1.20
2022-08-26T14:24:21.487Z,0.90
2022-08-26T14:26:48.875Z,1.10
2022-08-26T14:29:16.902Z,1.10
2022-08-26T14:31:44.868Z,0.90
2022-08-26T14:34:14.200Z,0.90
2022-08-26T14:36:41.585Z,1.10
2022-08-26T14:39:11.736Z,0.90
2022-08-26T14:41:54.470Z,0.90
2022-08-26T14:44:26.349Z,0.90
2022-08-26T14:46:54.812Z,0.90
2022-08-26T14:49:24.159Z,1.00
2022-08-26T14:51:51.617Z,0.90
2022-08-26T14:54:19.980Z,0.95
2022-08-26T14:56:51.443Z,0.90
2022-08-26T14:59:40.293Z,0.90
2022-08-26T15:02:13.759Z,0.90
2022-08-26T15:04:52.619Z,1.02
2022-08-26T15:07:20.023Z,1.20
2022-08-26T15:09:47.711Z,0.90
2022-08-26T15:12:15.124Z,1.05
2022-08-26T15:14:42.701Z,1.00
2022-08-26T15:17:10.067Z,1.17
2022-08-26T15:19:37.381Z,1.00
2022-08-26T15:22:04.993Z,0.93
2022-08-26T15:24:32.408Z,1.13
2022-08-26T15:26:59.800Z,1.10
2022-08-26T15:29:27.125Z,1.17
2022-08-26T15:31:57.187Z,1.00
2022-08-26T15:34:25.306Z,1.15
2022-08-26T15:36:52.661Z,1.20
2022-08-26T15:39:20.716Z,1.30
2022-08-26T15:41:48.136Z,1.23
2022-08-26T15:44:20.260Z,1.70
2022-08-26T15:46:48.776Z,1.40
2022-08-26T15:49:18.481Z,1.50
2022-08-26T15:51:48.237Z,1.30
2022-08-26T15:54:17.505Z,1.30
2022-08-26T15:56:45.629Z,1.50
2022-08-26T15:59:15.496Z,1.50
2022-08-26T16:01:43.752Z,1.40
2022-08-26T16:04:11.767Z,1.50
2022-08-26T16:06:41.077Z,1.40
2022-08-26T16:09:09.449Z,1.63
2022-08-26T16:11:38.036Z,1.48
2022-08-26T16:14:06.683Z,1.40
2022-08-26T16:16:34.277Z,1.70
2022-08-26T16:19:07.518Z,1.77
2022-08-26T16:21:35.984Z,1.77
2022-08-26T16:24:04.564Z,1.70
2022-08-26T16:26:34.474Z,1.70
2022-08-26T16:29:04.216Z,1.63
2022-08-26T16:31:31.910Z,1.90
2022-08-26T16:33:59.413Z,1.70
2022-08-26T16:36:27.747Z,1.95
2022-08-26T16:38:56.646Z,2.00
2022-08-26T16:41:26.429Z,1.88
2022-08-26T16:43:55.426Z,2.08
2022-08-26T16:46:26.002Z,2.00
2022-08-26T16:48:56.491Z,2.22
2022-08-26T16:51:27.088Z,2.08
2022-08-26T16:53:56.708Z,2.10
2022-08-26T16:56:30.629Z,2.30
2022-08-26T16:59:02.822Z,2.47
2022-08-26T17:01:30.517Z,2.22
2022-08-26T17:03:57.934Z,2.10
2022-08-26T17:06:25.308Z,2.10
2022-08-26T17:08:53.405Z,2.42
2022-08-26T17:11:23.402Z,2.40
2022-08-26T17:13:50.660Z,2.50
2022-08-26T17:16:18.086Z,2.50
2022-08-26T17:18:45.486Z,2.47
2022-08-26T17:21:14.859Z,2.78
2022-08-26T17:23:43.511Z,2.50
2022-08-26T17:26:12.613Z,2.85
2022-08-26T17:28:40.124Z,2.70
2022-08-26T17:31:09.688Z,2.53
2022-08-26T17:33:38.061Z,2.90
2022-08-26T17:36:07.426Z,2.70
2022-08-26T17:38:35.908Z,2.70
2022-08-26T17:41:06.692Z,2.70
2022-08-26T17:43:37.843Z,2.90
2022-08-26T17:46:07.765Z,3.17
2022-08-26T17:48:37.831Z,2.85
2022-08-26T17:51:15.270Z,2.90
2022-08-26T17:53:43.560Z,2.53
2022-08-26T17:56:14.986Z,2.40
2022-08-26T17:58:51.041Z,2.75
2022-08-26T18:01:26.104Z,2.80
2022-08-26T18:03:59.565Z,2.80
2022-08-26T18:06:28.442Z,3.47
2022-08-26T18:08:55.855Z,2.70
2022-08-26T18:11:24.550Z,3.05
2022-08-26T18:13:51.998Z,2.90
2022-08-26T18:16:20.903Z,2.90
2022-08-26T18:18:48.812Z,2.72
2022-08-26T18:21:20.510Z,2.55
2022-08-26T18:23:47.979Z,2.78
2022-08-26T18:26:33.514Z,2.80
2022-08-26T18:29:01.950Z,3.13
2022-08-26T18:31:30.002Z,2.70
2022-08-26T18:34:00.590Z,2.80
2022-08-26T18:36:33.967Z,3.20
2022-08-26T18:39:02.988Z,2.75
2022-08-26T18:41:32.148Z,2.92
2022-08-26T18:44:00.371Z,3.00
2022-08-26T18:46:28.457Z,2.92
2022-08-26T18:48:57.092Z,2.65
2022-08-26T18:51:27.333Z,2.72
2022-08-26T18:53:55.052Z,3.33
2022-08-26T18:56:23.005Z,3.22
2022-08-26T18:58:51.864Z,3.20
2022-08-26T19:01:27.112Z,2.97
2022-08-26T19:03:56.296Z,2.90
2022-08-26T19:06:24.914Z,3.17
2022-08-26T19:08:53.853Z,3.17
2022-08-26T19:11:31.380Z,3.30
2022-08-26T19:14:04.340Z,3.10
2022-08-26T19:16:31.830Z,3.67
2022-08-26T19:19:01.107Z,3.47
2022-08-26T19:21:29.829Z,3.20
2022-08-26T19:23:59.973Z,2.92
2022-08-26T19:26:28.269Z,3.17
2022-08-26T19:28:56.199Z,3.20
2022-08-26T19:31:24.906Z,2.80
2022-08-26T19:33:52.687Z,3.10
2022-08-26T19:36:23.929Z,3.00
2022-08-26T19:38:52.380Z,3.10
2022-08-26T19:41:27.794Z,3.40
2022-08-26T19:44:42.626Z,3.10
2022-08-26T19:47:12.156Z,3.20
2022-08-26T19:49:39.697Z,3.17
2022-08-26T19:52:12.041Z,3.40
2022-08-26T19:54:40.063Z,3.42
2022-08-26T19:57:07.620Z,3.20
2022-08-26T19:59:36.390Z,3.20
2022-08-26T20:02:11.121Z,3.40
2022-08-26T20:04:39.740Z,3.45
2022-08-26T20:07:07.360Z,3.38
2022-08-26T20:09:35.027Z,3.38
2022-08-26T20:12:03.825Z,3.20
2022-08-26T20:14:32.050Z,3.55
2022-08-26T20:17:00.026Z,4.05
2022-08-26T20:19:45.881Z,3.45
2022-08-26T20:22:14.193Z,3.85
2022-08-26T20:24:41.765Z,3.25
2022-08-26T20:27:10.161Z,3.33
2022-08-26T20:29:38.639Z,3.90
2022-08-26T20:32:07.235Z,3.83
2022-08-26T20:34:35.960Z,3.72
2022-08-26T20:37:03.845Z,3.70
2022-08-26T20:39:31.381Z,3.67
2022-08-26T20:41:59.012Z,3.90
2022-08-26T20:44:26.410Z,3.80
2022-08-26T20:46:53.824Z,3.92
2022-08-26T20:49:21.550Z,4.35
2022-08-26T20:51:52.335Z,3.90
2022-08-26T20:54:26.174Z,4.30
2022-08-26T20:56:57.108Z,4.03
2022-08-26T20:59:25.761Z,4.28
2022-08-26T21:01:53.362Z,4.20
2022-08-26T21:04:24.266Z,4.20
2022-08-26T21:06:53.166Z,4.20
2022-08-26T21:09:24.841Z,4.15
2022-08-26T21:11:53.854Z,4.25
2022-08-26T21:14:25.727Z,4.10
2022-08-26T21:16:56.070Z,4.10
2022-08-26T21:19:23.482Z,4.68
2022-08-26T21:21:51.016Z,4.35
2022-08-26T21:24:21.112Z,4.32
2022-08-26T21:26:48.540Z,3.97
2022-08-26T21:29:15.914Z,4.68
2022-08-26T21:31:46.488Z,4.38
2022-08-26T21:34:17.042Z,4.35
2022-08-26T21:36:48.092Z,4.70
2022-08-26T21:39:16.351Z,5.00
2022-08-26T21:41:44.475Z,4.82
2022-08-26T21:44:13.840Z,5.10
2022-08-26T21:46:42.107Z,5.43
2022-08-26T21:49:11.849Z,5.07
2022-08-26T21:51:41.990Z,5.20
2022-08-26T21:54:11.377Z,5.00
2022-08-26T21:56:44.814Z,5.75
2022-08-26T21:59:12.832Z,5.15
2022-08-26T22:01:40.132Z,5.40
2022-08-26T22:04:09.194Z,5.53
2022-08-26T22:06:42.273Z,5.32
2022-08-26T22:09:09.921Z,6.60
2022-08-26T22:11:37.510Z,5.78
2022-08-26T22:14:04.896Z,6.13
2022-08-26T22:16:32.326Z,5.60
2022-08-26T22:18:59.861Z,4.80
2022-08-26T22:21:30.850Z,5.30
2022-08-26T22:23:58.831Z,5.90
2022-08-26T22:26:30.084Z,5.03
2022-08-26T22:28:59.562Z,4.45
2022-08-26T22:31:37.011Z,4.60
2022-08-26T22:34:07.880Z,4.85
2022-08-26T22:36:35.792Z,5.00
2022-08-26T22:39:07.216Z,5.10
2022-08-26T22:41:37.925Z,4.80
2022-08-26T22:44:05.332Z,5.68
2022-08-26T22:46:34.982Z,4.90
2022-08-26T22:49:04.695Z,5.05
2022-08-26T22:51:32.299Z,4.82
2022-08-26T22:54:00.695Z,5.25
2022-08-26T22:56:27.942Z,4.90
2022-08-26T22:58:55.271Z,4.85
2022-08-26T23:01:22.609Z,5.15
2022-08-26T23:03:50.093Z,5.50
2022-08-26T23:06:17.410Z,4.95
2022-08-26T23:08:46.542Z,5.57
2022-08-26T23:11:15.131Z,5.82
2022-08-26T23:13:42.859Z,5.70
2022-08-26T23:16:12.372Z,5.75
2022-08-26T23:18:41.318Z,6.35
2022-08-26T23:21:09.418Z,5.85
2022-08-26T23:23:37.175Z,5.78
2022-08-26T23:26:06.296Z,5.82
2022-08-26T23:28:35.176Z,6.18
2022-08-26T23:31:02.485Z,5.88
2022-08-26T23:33:50.137Z,6.40
2022-08-26T23:36:18.507Z,6.10
2022-08-26T23:38:53.162Z,6.03
2022-08-26T23:41:24.331Z,6.10
2022-08-26T23:43:52.064Z,5.82
2022-08-26T23:46:20.078Z,5.57
2022-08-26T23:48:48.219Z,5.25
2022-08-26T23:51:34.340Z,5.35
2022-08-26T23:54:02.036Z,4.93
2022-08-26T23:56:29.487Z,5.25
2022-08-26T23:58:58.895Z,5.80
